Aeroporto :
LOGIN :

Iscrizione | Disclaimer

   EN    FR    IT 

 










Sommario :    VFR   VFR Marginale   IFR   IFR Intensivo   IFR Molto Intensivo
Visibilità : 
Base nubi : 
>= 8 km
>= 3000ft
5 / 8 km
1000 / 3000 ft
1500m / 5 km
500 / 1000 ft
800 / 1500m
200 / 500 ft
< 800m
< 200 ft
Simboli :   Temporali  Nebbia  Neve Forte  Precipitazioni Forti  Vento > 20 kt
SIGMETs :   Varie  Temporali  Ghiacco  Turbolenza  Onda orograficha  Ceneri Vulcaniche







- Altitudine del aeroporto : 622 ft
- Codice IATA : BRS
- Carte del aeroporto


EGGD - Bristol Int.

ULTIMO METAR :
  • 241820Z AUTO 25009KT 9999 NCD 14/11 Q1019

METARs OBSOLETI :
  • 241750Z AUTO 25007KT 9999 NCD 15/12 Q1019
  • 241720Z AUTO 27011KT 9999 NCD 15/12 Q1019
  • 241650Z AUTO 27012KT 9999 NCD 15/12 Q1019
  • 241620Z AUTO 27013KT 9999 NCD 16/12 Q1019
  • 241550Z AUTO 26011KT 9999 NCD 16/12 Q1019

TAF TAF EGGD
Valido dal 24 a 18 ore il 25 a 18 ore UTC


241656Z 2418/2518 27008KT 9999 SCT030
PROB30
TEMPO 2418/2420 7000 SHRA
PROB30
TEMPO 2420/2424 8000
TEMPO 2500/2508 8000 BKN008
PROB30 2502/2507 4000 BR BKN003
PROB30
TEMPO 2508/2512 8000
ATIS : +44 1275 473 666
Nessun NOTAM noto per questo aeroporto.



MetMap, La meteo Aeronautica in un colpo d'occhio ! - Copyright ORBIFLY Dicembre 2007 - Disclaimer

ORBIFLY MET'MAP TEAM :

Programmazione e sviluppo : Alexandra Zaïnal
Concezione e sviluppo : Baudouin d'Aumeries
Co-Programmazione e sviluppo : Marc-Olivier Méhu
Supporto tecnico e logistico : Manuel Goepfert
Aiuto per la traduzione : Arnaldo La Scala

Contatto : metmap@orbifly.com




FONTI E CREDITI :

   NOAA